createdAt,value
2024-01-14T00:00:01.360Z,1002.86
2024-01-14T00:01:01.278Z,1002.80
2024-01-14T00:02:01.249Z,1002.76
2024-01-14T00:03:01.305Z,1002.81
2024-01-14T00:04:01.287Z,1002.75
2024-01-14T00:05:01.194Z,1002.76
2024-01-14T00:06:01.512Z,1002.79
2024-01-14T00:07:01.236Z,1002.79
2024-01-14T00:08:01.198Z,1002.78
2024-01-14T00:09:01.170Z,1002.76
2024-01-14T00:10:01.146Z,1002.67
2024-01-14T00:11:01.123Z,1002.69
2024-01-14T00:12:01.230Z,1002.73
2024-01-14T00:13:01.121Z,1002.71
2024-01-14T00:14:01.096Z,1002.70
2024-01-14T00:15:01.181Z,1002.71
2024-01-14T00:16:01.065Z,1002.63
2024-01-14T00:17:01.081Z,1002.62
2024-01-14T00:18:01.183Z,1002.55
2024-01-14T00:19:01.225Z,1002.56
2024-01-14T00:20:01.449Z,1002.46
2024-01-14T00:21:01.074Z,1002.58
2024-01-14T00:22:01.008Z,1002.47
2024-01-14T00:23:00.973Z,1002.49
2024-01-14T00:24:01.005Z,1002.46
2024-01-14T00:25:00.961Z,1002.50
2024-01-14T00:26:00.939Z,1002.45
2024-01-14T00:27:00.991Z,1002.43
2024-01-14T00:28:00.908Z,1002.42
2024-01-14T00:29:00.924Z,1002.37
2024-01-14T00:30:00.922Z,1002.34
2024-01-14T00:31:01.069Z,1002.33
2024-01-14T00:32:00.979Z,1002.33
2024-01-14T00:33:00.978Z,1002.30
2024-01-14T00:34:01.033Z,1002.27
2024-01-14T00:35:00.946Z,1002.23
2024-01-14T00:36:00.866Z,1002.20
2024-01-14T00:37:00.795Z,1002.18
2024-01-14T00:38:00.766Z,1002.17
2024-01-14T00:39:00.808Z,1002.07
2024-01-14T00:40:00.759Z,1002.12
2024-01-14T00:41:00.731Z,1002.16
2024-01-14T00:42:01.119Z,1002.13
2024-01-14T00:43:00.691Z,1002.13
2024-01-14T00:44:00.697Z,1002.12
2024-01-14T00:45:00.739Z,1002.12
2024-01-14T00:46:00.656Z,1002.12
2024-01-14T00:47:00.667Z,1002.07
2024-01-14T00:48:00.734Z,1002.05
2024-01-14T00:49:00.756Z,1002.13
2024-01-14T00:50:00.780Z,1002.15
2024-01-14T00:51:00.678Z,1002.18
2024-01-14T00:52:00.653Z,1002.10
2024-01-14T00:53:00.575Z,1002.13
2024-01-14T00:54:00.649Z,1002.13
2024-01-14T00:55:00.529Z,1002.12
2024-01-14T00:56:00.538Z,1002.09
2024-01-14T00:57:00.528Z,1002.07
2024-01-14T00:58:00.496Z,1002.13
2024-01-14T00:59:00.476Z,1002.12
2024-01-14T01:00:00.521Z,1002.16
2024-01-14T01:01:00.513Z,1002.12
2024-01-14T01:02:00.451Z,1002.13
2024-01-14T01:03:00.541Z,1002.13
2024-01-14T01:04:00.581Z,1002.06
2024-01-14T01:05:00.465Z,1002.10
2024-01-14T01:06:00.471Z,1002.12
2024-01-14T01:07:00.411Z,1002.13
2024-01-14T01:08:00.403Z,1002.10
2024-01-14T01:09:00.392Z,1002.08
2024-01-14T01:10:00.362Z,1002.09
2024-01-14T01:11:00.358Z,1002.10
2024-01-14T01:12:00.486Z,1002.12
2024-01-14T01:13:00.319Z,1002.09
2024-01-14T01:14:00.310Z,1002.09
2024-01-14T01:15:00.395Z,1002.06
2024-01-14T01:16:00.300Z,1002.02
2024-01-14T01:17:00.293Z,1002.00
2024-01-14T01:18:00.493Z,1002.03
2024-01-14T01:19:00.440Z,1001.95
2024-01-14T01:20:00.453Z,1001.90
2024-01-14T01:21:00.256Z,1001.95
2024-01-14T01:22:00.212Z,1001.91
2024-01-14T01:23:00.225Z,1001.91
2024-01-14T01:24:00.217Z,1001.88
2024-01-14T01:25:00.246Z,1001.89
2024-01-14T01:26:00.195Z,1001.85
2024-01-14T01:27:00.186Z,1001.79
2024-01-14T01:28:00.134Z,1001.76
2024-01-14T01:29:02.582Z,1001.77
2024-01-14T01:30:00.309Z,1001.81
2024-01-14T01:31:00.197Z,1001.77
2024-01-14T01:32:07.167Z,1001.75
2024-01-14T01:33:00.374Z,1001.80
2024-01-14T01:34:00.235Z,1001.80
2024-01-14T01:35:00.220Z,1001.78
2024-01-14T01:36:00.104Z,1001.81
2024-01-14T01:37:00.021Z,1001.84
2024-01-14T01:38:00.013Z,1001.81
2024-01-14T01:39:00.069Z,1001.87
2024-01-14T01:40:00.013Z,1001.88
2024-01-14T01:40:59.979Z,1001.85
2024-01-14T01:41:59.993Z,1001.87
2024-01-14T01:42:59.968Z,1001.81
2024-01-14T01:43:59.965Z,1001.80
2024-01-14T01:44:59.947Z,1001.80
2024-01-14T01:45:59.906Z,1001.80
2024-01-14T01:46:59.913Z,1001.83
2024-01-14T01:47:59.972Z,1001.82
2024-01-14T01:48:59.977Z,1001.73
2024-01-14T01:49:59.876Z,1001.78
2024-01-14T01:50:59.858Z,1001.73
2024-01-14T01:51:59.838Z,1001.78
2024-01-14T01:52:59.838Z,1001.68
2024-01-14T01:53:59.899Z,1001.68
2024-01-14T01:54:59.811Z,1001.78
2024-01-14T01:55:59.784Z,1001.77
2024-01-14T01:56:59.790Z,1001.74
2024-01-14T01:57:59.773Z,1001.76
2024-01-14T01:58:59.738Z,1001.75
2024-01-14T01:59:59.780Z,1001.75
2024-01-14T02:00:59.741Z,1001.71
2024-01-14T02:01:59.803Z,1001.72
2024-01-14T02:02:59.782Z,1001.70
2024-01-14T02:03:59.763Z,1001.66
2024-01-14T02:04:59.736Z,1001.64
2024-01-14T02:05:59.673Z,1001.67
2024-01-14T02:06:59.662Z,1001.71
2024-01-14T02:07:59.657Z,1001.68
2024-01-14T02:08:59.650Z,1001.63
2024-01-14T02:09:59.605Z,1001.66
2024-01-14T02:10:59.589Z,1001.64
2024-01-14T02:11:59.607Z,1001.66
2024-01-14T02:12:59.572Z,1001.61
2024-01-14T02:13:59.534Z,1001.67
2024-01-14T02:14:59.603Z,1001.61
2024-01-14T02:15:59.529Z,1001.57
2024-01-14T02:16:59.514Z,1001.53
2024-01-14T02:17:59.674Z,1001.57
2024-01-14T02:18:59.623Z,1001.52
2024-01-14T02:19:59.437Z,1001.58
2024-01-14T02:20:59.479Z,1001.56
2024-01-14T02:21:59.433Z,1001.55
2024-01-14T02:22:59.413Z,1001.43
2024-01-14T02:23:59.471Z,1001.43
2024-01-14T02:24:59.367Z,1001.38
2024-01-14T02:25:59.387Z,1001.43
2024-01-14T02:26:59.414Z,1001.43
2024-01-14T02:27:59.330Z,1001.50
2024-01-14T02:28:59.314Z,1001.40
2024-01-14T02:29:59.380Z,1001.48
2024-01-14T02:30:59.499Z,1001.43
2024-01-14T02:31:59.294Z,1001.33
2024-01-14T02:32:59.404Z,1001.32
2024-01-14T02:33:59.324Z,1001.32
2024-01-14T02:34:59.236Z,1001.25
2024-01-14T02:35:59.281Z,1001.27
2024-01-14T02:36:59.229Z,1001.21
2024-01-14T02:37:59.205Z,1001.15
2024-01-14T02:38:59.247Z,1001.20
2024-01-14T02:39:59.183Z,1001.28
2024-01-14T02:40:59.181Z,1001.28
2024-01-14T02:41:59.186Z,1001.27
2024-01-14T02:42:59.138Z,1001.19
2024-01-14T02:43:59.113Z,1001.21
2024-01-14T02:44:59.157Z,1001.17
2024-01-14T02:45:59.105Z,1001.17
2024-01-14T02:46:59.087Z,1001.18
2024-01-14T02:47:59.139Z,1001.24
2024-01-14T02:48:59.259Z,1001.23
2024-01-14T02:49:59.094Z,1001.26
2024-01-14T02:50:59.079Z,1001.26
2024-01-14T02:51:59.047Z,1001.23
2024-01-14T02:52:59.044Z,1001.13
2024-01-14T02:53:59.053Z,1001.22
2024-01-14T02:54:59.030Z,1001.23
2024-01-14T02:55:58.990Z,1001.14
2024-01-14T02:57:00.759Z,1001.14
2024-01-14T02:57:58.980Z,1001.17
2024-01-14T02:58:58.971Z,1001.12
2024-01-14T02:59:58.954Z,1001.12
2024-01-14T03:00:59.023Z,1001.17
2024-01-14T03:01:58.913Z,1001.17
2024-01-14T03:02:58.944Z,1001.19
2024-01-14T03:03:58.975Z,1001.18
2024-01-14T03:04:58.915Z,1001.23
2024-01-14T03:05:58.947Z,1001.17
2024-01-14T03:06:58.964Z,1001.16
2024-01-14T03:07:58.837Z,1001.15
2024-01-14T03:08:58.915Z,1001.16
2024-01-14T03:09:58.812Z,1001.12
2024-01-14T03:10:58.798Z,1001.08
2024-01-14T03:11:58.893Z,1001.07
2024-01-14T03:12:58.815Z,1001.05
2024-01-14T03:13:58.774Z,1001.07
2024-01-14T03:14:58.793Z,1001.03
2024-01-14T03:15:58.760Z,1001.13
2024-01-14T03:16:58.720Z,1001.06
2024-01-14T03:17:58.910Z,1001.05
2024-01-14T03:18:58.817Z,1001.03
2024-01-14T03:19:58.733Z,1001.03
2024-01-14T03:20:58.708Z,1001.02
2024-01-14T03:21:58.669Z,1001.07
2024-01-14T03:22:58.667Z,1001.07
2024-01-14T03:23:58.745Z,1001.06
2024-01-14T03:24:58.643Z,1001.05
2024-01-14T03:25:58.612Z,1001.01
2024-01-14T03:26:58.697Z,1000.97
2024-01-14T03:27:58.604Z,1000.97
2024-01-14T03:28:58.577Z,1000.95
2024-01-14T03:29:58.612Z,1000.99
2024-01-14T03:30:58.668Z,1000.98
2024-01-14T03:31:58.539Z,1000.95
2024-01-14T03:32:58.637Z,1000.95
2024-01-14T03:33:58.576Z,1000.99
2024-01-14T03:34:58.498Z,1000.97
2024-01-14T03:35:58.490Z,1000.94
2024-01-14T03:36:58.484Z,1000.96
2024-01-14T03:37:58.469Z,1000.94
2024-01-14T03:38:58.450Z,1000.94
2024-01-14T03:39:58.434Z,1000.89
2024-01-14T03:40:58.441Z,1000.94
2024-01-14T03:41:58.642Z,1000.94
2024-01-14T03:42:58.422Z,1000.88
2024-01-14T03:43:58.369Z,1000.88
2024-01-14T03:44:58.383Z,1000.95
2024-01-14T03:45:58.358Z,1000.92
2024-01-14T03:46:58.350Z,1000.93
2024-01-14T03:47:58.549Z,1000.90
2024-01-14T03:48:58.421Z,1000.83
2024-01-14T03:49:58.289Z,1000.85
2024-01-14T03:50:58.314Z,1000.80
2024-01-14T03:51:58.265Z,1000.84
2024-01-14T03:52:58.249Z,1000.75
2024-01-14T03:53:58.267Z,1000.69
2024-01-14T03:54:58.232Z,1000.74
2024-01-14T03:55:58.221Z,1000.71
2024-01-14T03:56:58.262Z,1000.76
2024-01-14T03:57:58.207Z,1000.69
2024-01-14T03:58:58.164Z,1000.74
2024-01-14T03:59:58.185Z,1000.74
2024-01-14T04:00:58.232Z,1000.74
2024-01-14T04:01:58.118Z,1000.73
2024-01-14T04:02:58.250Z,1000.66
2024-01-14T04:03:58.300Z,1000.68
2024-01-14T04:04:58.131Z,1000.67
2024-01-14T04:05:58.148Z,1000.58
2024-01-14T04:06:58.109Z,1000.64
2024-01-14T04:07:58.044Z,1000.53
2024-01-14T04:08:58.065Z,1000.53
2024-01-14T04:09:58.030Z,1000.52
2024-01-14T04:10:58.028Z,1000.48
2024-01-14T04:11:58.032Z,1000.52
2024-01-14T04:12:57.999Z,1000.52
2024-01-14T04:13:57.968Z,1000.51
2024-01-14T04:14:58.046Z,1000.49
2024-01-14T04:16:00.678Z,1000.41
2024-01-14T04:16:57.920Z,1000.21
2024-01-14T04:17:57.979Z,1000.17
2024-01-14T04:18:58.079Z,1000.02
2024-01-14T04:19:57.978Z,999.98
2024-01-14T04:20:57.924Z,1000.03
2024-01-14T04:21:57.853Z,999.98
2024-01-14T04:22:57.840Z,999.95
2024-01-14T04:23:57.888Z,1000.04
2024-01-14T04:24:57.813Z,1000.05
2024-01-14T04:25:57.812Z,999.99
2024-01-14T04:26:57.827Z,999.98
2024-01-14T04:27:57.775Z,999.94
2024-01-14T04:28:57.803Z,999.95
2024-01-14T04:29:57.788Z,999.97
2024-01-14T04:30:57.820Z,999.97
2024-01-14T04:31:57.795Z,1000.02
2024-01-14T04:32:57.977Z,1000.07
2024-01-14T04:33:57.963Z,1000.09
2024-01-14T04:34:57.859Z,1000.02
2024-01-14T04:35:57.695Z,999.97
2024-01-14T04:36:57.663Z,1000.14
2024-01-14T04:37:59.979Z,1000.20
2024-01-14T04:38:57.701Z,1000.11
2024-01-14T04:39:57.628Z,1000.04
2024-01-14T04:40:57.609Z,999.99
2024-01-14T04:41:57.635Z,1000.05
2024-01-14T04:42:57.605Z,999.98
2024-01-14T04:43:57.565Z,1000.09
2024-01-14T04:44:57.628Z,1000.09
2024-01-14T04:45:57.565Z,1000.17
2024-01-14T04:46:57.549Z,1000.16
2024-01-14T04:47:57.679Z,1000.20
2024-01-14T04:48:57.707Z,1000.21
2024-01-14T04:49:57.578Z,1000.19
2024-01-14T04:50:57.531Z,1000.23
2024-01-14T04:51:57.498Z,1000.23
2024-01-14T04:52:57.467Z,1000.33
2024-01-14T04:53:57.515Z,1000.40
2024-01-14T04:54:57.428Z,1000.38
2024-01-14T04:55:57.407Z,1000.38
2024-01-14T04:56:57.434Z,1000.34
2024-01-14T04:57:57.388Z,1000.32
2024-01-14T04:58:57.375Z,1000.31
2024-01-14T04:59:57.374Z,1000.38
2024-01-14T05:00:57.419Z,1000.37
2024-01-14T05:01:57.353Z,1000.45
2024-01-14T05:02:57.352Z,1000.39
2024-01-14T05:03:57.360Z,1000.32
2024-01-14T05:04:57.332Z,1000.37
2024-01-14T05:05:57.357Z,1000.34
2024-01-14T05:06:57.418Z,1000.17
2024-01-14T05:07:57.268Z,1000.17
2024-01-14T05:08:57.272Z,1000.12
2024-01-14T05:09:57.240Z,1000.07
2024-01-14T05:10:57.238Z,1000.06
2024-01-14T05:11:57.347Z,1000.07
2024-01-14T05:12:57.198Z,1000.01
2024-01-14T05:13:57.203Z,999.93
2024-01-14T05:14:57.206Z,999.94
2024-01-14T05:15:57.182Z,999.95
2024-01-14T05:16:57.169Z,999.87
2024-01-14T05:17:57.234Z,999.82
2024-01-14T05:18:57.206Z,999.80
2024-01-14T05:19:57.116Z,999.88
2024-01-14T05:20:57.124Z,999.82
2024-01-14T05:21:57.084Z,999.87
2024-01-14T05:22:57.075Z,999.99
2024-01-14T05:23:57.129Z,1000.03
2024-01-14T05:24:57.084Z,1000.00
2024-01-14T05:25:57.049Z,999.99
2024-01-14T05:26:57.064Z,1000.00
2024-01-14T05:27:57.006Z,1000.00
2024-01-14T05:28:56.996Z,999.97
2024-01-14T05:29:57.033Z,999.94
2024-01-14T05:30:57.013Z,999.95
2024-01-14T05:31:56.966Z,1000.00
2024-01-14T05:32:57.045Z,999.97
2024-01-14T05:33:57.007Z,1000.00
2024-01-14T05:34:57.007Z,1000.04
2024-01-14T05:35:56.915Z,1000.06
2024-01-14T05:36:56.895Z,1000.04
2024-01-14T05:37:56.877Z,1000.08
2024-01-14T05:38:56.912Z,1000.10
2024-01-14T05:39:56.866Z,1000.06
2024-01-14T05:40:56.855Z,1000.05
2024-01-14T05:41:56.863Z,1000.02
2024-01-14T05:42:56.809Z,1000.06
2024-01-14T05:43:56.822Z,1000.09
2024-01-14T05:44:56.821Z,1000.08
2024-01-14T05:45:56.774Z,1000.06
2024-01-14T05:46:56.769Z,1000.03
2024-01-14T05:47:56.841Z,1000.05
2024-01-14T05:48:56.983Z,1000.04
2024-01-14T05:49:56.807Z,1000.02
2024-01-14T05:50:56.742Z,1000.00
2024-01-14T05:51:56.697Z,999.96
2024-01-14T05:52:56.679Z,1000.00
2024-01-14T05:53:56.698Z,999.99
2024-01-14T05:54:56.664Z,999.98
2024-01-14T05:55:56.653Z,999.98
2024-01-14T05:56:56.659Z,999.96
2024-01-14T05:57:56.642Z,1000.01
2024-01-14T05:58:56.646Z,999.99
2024-01-14T05:59:56.630Z,999.95
2024-01-14T06:00:56.726Z,999.92
2024-01-14T06:01:56.581Z,999.92
2024-01-14T06:02:56.590Z,999.95
2024-01-14T06:03:56.535Z,999.92
2024-01-14T06:04:56.662Z,999.98
2024-01-14T06:05:56.859Z,999.90
2024-01-14T06:06:56.630Z,999.95
2024-01-14T06:07:56.504Z,999.93
2024-01-14T06:08:56.489Z,1000.00
2024-01-14T06:09:56.480Z,999.96
2024-01-14T06:10:56.465Z,999.94
2024-01-14T06:11:56.574Z,999.90
2024-01-14T06:12:56.508Z,999.92
2024-01-14T06:13:56.405Z,999.91
2024-01-14T06:14:56.424Z,999.97
2024-01-14T06:15:56.417Z,999.96
2024-01-14T06:16:56.386Z,999.90
2024-01-14T06:17:56.500Z,999.88
2024-01-14T06:18:56.506Z,999.87
2024-01-14T06:19:56.360Z,999.90
2024-01-14T06:20:56.479Z,999.88
2024-01-14T06:21:56.328Z,999.87
2024-01-14T06:22:56.301Z,999.92
2024-01-14T06:23:56.318Z,999.83
2024-01-14T06:24:56.265Z,999.77
2024-01-14T06:25:56.313Z,999.70
2024-01-14T06:26:56.330Z,999.67
2024-01-14T06:27:56.228Z,999.72
2024-01-14T06:28:56.220Z,999.77
2024-01-14T06:29:56.211Z,999.80
2024-01-14T06:30:56.272Z,999.75
2024-01-14T06:31:56.181Z,999.78
2024-01-14T06:32:56.211Z,999.75
2024-01-14T06:33:56.211Z,999.70
2024-01-14T06:34:56.421Z,999.76
2024-01-14T06:35:56.232Z,999.79
2024-01-14T06:36:56.158Z,999.77
2024-01-14T06:37:56.102Z,999.76
2024-01-14T06:38:56.114Z,999.74
2024-01-14T06:39:56.088Z,999.70
2024-01-14T06:41:03.279Z,999.66
2024-01-14T06:41:56.062Z,999.73
2024-01-14T06:42:56.052Z,999.61
2024-01-14T06:43:56.027Z,999.58
2024-01-14T06:44:56.081Z,999.65
2024-01-14T06:45:56.009Z,999.65
2024-01-14T06:46:55.995Z,999.61
2024-01-14T06:47:56.142Z,999.66
2024-01-14T06:48:56.134Z,999.67
2024-01-14T06:50:03.624Z,999.69
2024-01-14T06:50:56.939Z,999.68
2024-01-14T06:51:55.929Z,999.59
2024-01-14T06:52:55.954Z,999.60
2024-01-14T06:53:56.019Z,999.61
2024-01-14T06:54:55.909Z,999.60
2024-01-14T06:55:55.884Z,999.63
2024-01-14T06:56:55.886Z,999.64
2024-01-14T06:57:55.835Z,999.66
2024-01-14T06:58:55.854Z,999.65
2024-01-14T06:59:55.825Z,999.69
2024-01-14T07:00:56.052Z,999.63
2024-01-14T07:01:55.819Z,999.62
2024-01-14T07:02:55.865Z,999.60
2024-01-14T07:03:55.834Z,999.57
2024-01-14T07:04:55.750Z,999.60
2024-01-14T07:05:55.864Z,999.54
2024-01-14T07:06:55.831Z,999.53
2024-01-14T07:07:55.724Z,999.59
2024-01-14T07:08:55.778Z,999.62
2024-01-14T07:09:55.701Z,999.65
2024-01-14T07:10:55.667Z,999.63
2024-01-14T07:11:55.798Z,999.60
2024-01-14T07:12:55.685Z,999.60
2024-01-14T07:13:55.648Z,999.48
2024-01-14T07:14:55.650Z,999.48
2024-01-14T07:15:55.701Z,999.43
2024-01-14T07:16:55.595Z,999.46
2024-01-14T07:17:59.589Z,999.36
2024-01-14T07:18:55.699Z,999.39
2024-01-14T07:19:55.746Z,999.44
2024-01-14T07:20:55.591Z,999.46
2024-01-14T07:21:55.558Z,999.44
2024-01-14T07:22:55.531Z,999.46
2024-01-14T07:23:55.538Z,999.43
2024-01-14T07:24:55.598Z,999.45
2024-01-14T07:25:55.481Z,999.47
2024-01-14T07:26:55.505Z,999.45
2024-01-14T07:27:55.473Z,999.45
2024-01-14T07:28:55.971Z,999.53
2024-01-14T07:29:55.453Z,999.52
2024-01-14T07:30:55.596Z,999.55
2024-01-14T07:31:55.413Z,999.61
2024-01-14T07:32:55.493Z,999.61
2024-01-14T07:33:55.524Z,999.54
2024-01-14T07:34:55.356Z,999.52
2024-01-14T07:35:55.452Z,999.48
2024-01-14T07:36:55.344Z,999.52
2024-01-14T07:37:55.316Z,999.56
2024-01-14T07:38:55.457Z,999.49
2024-01-14T07:39:55.293Z,999.49
2024-01-14T07:40:55.315Z,999.53
2024-01-14T07:41:55.337Z,999.51
2024-01-14T07:42:55.264Z,999.54
2024-01-14T07:43:55.342Z,999.55
2024-01-14T07:44:55.309Z,999.48
2024-01-14T07:45:55.250Z,999.52
2024-01-14T07:46:55.202Z,999.48
2024-01-14T07:47:55.314Z,999.48
2024-01-14T07:48:55.253Z,999.57
2024-01-14T07:49:55.171Z,999.55
2024-01-14T07:50:55.218Z,999.52
2024-01-14T07:51:55.143Z,999.57
2024-01-14T07:52:55.129Z,999.58
2024-01-14T07:53:55.174Z,999.60
2024-01-14T07:54:55.113Z,999.57
2024-01-14T07:55:55.102Z,999.58
2024-01-14T07:56:55.135Z,999.56
2024-01-14T07:57:55.065Z,999.53
2024-01-14T07:58:55.047Z,999.56
2024-01-14T07:59:55.071Z,999.51
2024-01-14T08:01:01.586Z,999.54
2024-01-14T08:01:55.082Z,999.47
2024-01-14T08:02:55.005Z,999.44
2024-01-14T08:03:55.132Z,999.51
2024-01-14T08:04:55.003Z,999.55
2024-01-14T08:05:55.114Z,999.56
2024-01-14T08:06:54.947Z,999.43
2024-01-14T08:07:54.938Z,999.47
2024-01-14T08:08:54.967Z,999.47
2024-01-14T08:09:54.955Z,999.43
2024-01-14T08:10:54.919Z,999.45
2024-01-14T08:11:54.896Z,999.43
2024-01-14T08:12:54.900Z,999.48
2024-01-14T08:13:54.880Z,999.40
2024-01-14T08:14:54.929Z,999.45
2024-01-14T08:16:01.597Z,999.49
2024-01-14T08:16:54.832Z,999.41
2024-01-14T08:17:54.971Z,999.40
2024-01-14T08:18:54.917Z,999.41
2024-01-14T08:19:54.861Z,999.39
2024-01-14T08:20:54.846Z,999.32
2024-01-14T08:21:54.760Z,999.35
2024-01-14T08:22:54.737Z,999.38
2024-01-14T08:23:54.800Z,999.38
2024-01-14T08:24:54.729Z,999.38
2024-01-14T08:25:54.724Z,999.40
2024-01-14T08:26:54.750Z,999.33
2024-01-14T08:27:54.685Z,999.37
2024-01-14T08:28:54.711Z,999.35
2024-01-14T08:29:54.689Z,999.29
2024-01-14T08:30:54.744Z,999.31
2024-01-14T08:31:54.755Z,999.30
2024-01-14T08:32:54.825Z,999.26
2024-01-14T08:33:54.754Z,999.26
2024-01-14T08:34:54.806Z,999.30
2024-01-14T08:35:54.650Z,999.24
2024-01-14T08:36:54.553Z,999.22
2024-01-14T08:37:54.556Z,999.25
2024-01-14T08:38:54.622Z,999.27
2024-01-14T08:39:54.520Z,999.21
2024-01-14T08:40:54.507Z,999.17
2024-01-14T08:41:54.532Z,999.21
2024-01-14T08:42:54.592Z,999.23
2024-01-14T08:43:54.461Z,999.19
2024-01-14T08:44:54.621Z,999.22
2024-01-14T08:45:54.689Z,999.22
2024-01-14T08:46:54.455Z,999.12
2024-01-14T08:47:54.662Z,999.12
2024-01-14T08:48:54.525Z,999.17
2024-01-14T08:49:54.533Z,999.11
2024-01-14T08:50:54.475Z,999.20
2024-01-14T08:51:54.473Z,999.15
2024-01-14T08:52:54.368Z,999.14
2024-01-14T08:53:54.334Z,999.16
2024-01-14T08:54:54.328Z,999.19
2024-01-14T08:55:54.442Z,999.16
2024-01-14T08:56:54.410Z,999.15
2024-01-14T08:57:54.312Z,999.16
2024-01-14T08:58:54.279Z,999.12
2024-01-14T08:59:54.329Z,999.13
2024-01-14T09:00:54.421Z,999.17
2024-01-14T09:01:54.281Z,999.09
2024-01-14T09:02:54.250Z,999.11
2024-01-14T09:03:54.294Z,999.13
2024-01-14T09:04:54.229Z,999.16
2024-01-14T09:05:54.379Z,999.19
2024-01-14T09:06:54.247Z,999.11
2024-01-14T09:07:54.178Z,999.14
2024-01-14T09:08:54.167Z,999.12
2024-01-14T09:09:54.151Z,999.06
2024-01-14T09:10:54.152Z,999.17
2024-01-14T09:11:54.161Z,999.09
2024-01-14T09:12:54.093Z,999.13
2024-01-14T09:13:54.088Z,999.11
2024-01-14T09:14:54.089Z,999.13
2024-01-14T09:15:54.082Z,999.17
2024-01-14T09:16:54.061Z,999.17
2024-01-14T09:17:54.273Z,999.14
2024-01-14T09:18:54.130Z,999.18
2024-01-14T09:19:54.160Z,999.15
2024-01-14T09:20:54.037Z,999.12
2024-01-14T09:21:54.009Z,999.18
2024-01-14T09:22:53.964Z,999.13
2024-01-14T09:23:53.983Z,999.08
2024-01-14T09:24:53.950Z,999.12
2024-01-14T09:25:53.940Z,999.11
2024-01-14T09:26:53.938Z,999.08
2024-01-14T09:27:53.900Z,999.13
2024-01-14T09:28:53.880Z,999.12
2024-01-14T09:29:53.922Z,999.09
2024-01-14T09:30:53.921Z,999.14
2024-01-14T09:31:53.910Z,999.14
2024-01-14T09:32:53.934Z,999.12
2024-01-14T09:33:53.898Z,999.11
2024-01-14T09:34:53.840Z,999.11
2024-01-14T09:35:53.810Z,999.08
2024-01-14T09:36:53.772Z,999.07
2024-01-14T09:37:53.772Z,999.09
2024-01-14T09:38:53.830Z,999.02
2024-01-14T09:39:53.753Z,999.12
2024-01-14T09:40:53.723Z,999.17
2024-01-14T09:41:53.761Z,999.17
2024-01-14T09:42:53.701Z,999.17
2024-01-14T09:43:53.706Z,999.15
2024-01-14T09:44:53.721Z,999.18
2024-01-14T09:45:53.713Z,999.22
2024-01-14T09:46:53.648Z,999.19
2024-01-14T09:47:53.740Z,999.19
2024-01-14T09:48:53.793Z,999.17
2024-01-14T09:49:53.655Z,999.21
2024-01-14T09:50:53.853Z,999.12
2024-01-14T09:51:53.591Z,999.19
2024-01-14T09:52:53.570Z,999.19
2024-01-14T09:53:53.721Z,999.21
2024-01-14T09:54:53.580Z,999.16
2024-01-14T09:55:53.542Z,999.18
2024-01-14T09:56:53.593Z,999.14
2024-01-14T09:57:53.527Z,999.07
2024-01-14T09:58:53.565Z,999.08
2024-01-14T09:59:53.550Z,999.11
2024-01-14T10:00:53.670Z,999.11
2024-01-14T10:01:53.460Z,999.07
2024-01-14T10:02:53.526Z,999.10
2024-01-14T10:03:53.509Z,999.07
2024-01-14T10:04:53.447Z,999.12
2024-01-14T10:05:53.519Z,999.06
2024-01-14T10:06:53.505Z,999.06
2024-01-14T10:07:53.538Z,999.09
2024-01-14T10:08:54.212Z,999.05
2024-01-14T10:09:53.358Z,999.07
2024-01-14T10:10:57.534Z,999.05
2024-01-14T10:11:53.342Z,999.06
2024-01-14T10:12:53.337Z,999.01
2024-01-14T10:13:53.303Z,998.99
2024-01-14T10:14:54.652Z,998.98
2024-01-14T10:15:58.640Z,999.01
2024-01-14T10:16:55.536Z,998.91
2024-01-14T10:17:53.275Z,998.98
2024-01-14T10:18:53.288Z,998.92
2024-01-14T10:19:53.302Z,998.93
2024-01-14T10:20:53.248Z,998.89
2024-01-14T10:22:13.299Z,998.80
2024-01-14T10:22:53.210Z,998.86
2024-01-14T10:23:53.179Z,998.83
2024-01-14T10:24:53.271Z,998.85
2024-01-14T10:25:53.160Z,998.88
2024-01-14T10:26:53.149Z,998.82
2024-01-14T10:27:53.140Z,998.82
2024-01-14T10:28:53.129Z,998.73
2024-01-14T10:29:53.101Z,998.71
2024-01-14T10:30:53.160Z,998.70
2024-01-14T10:31:53.190Z,998.70
2024-01-14T10:33:18.364Z,998.71
2024-01-14T10:33:53.121Z,998.66
2024-01-14T10:34:53.154Z,998.67
2024-01-14T10:35:53.193Z,998.70
2024-01-14T10:36:53.072Z,998.72
2024-01-14T10:37:52.991Z,998.62
2024-01-14T10:38:52.974Z,998.70
2024-01-14T10:39:52.970Z,998.63
2024-01-14T10:40:52.984Z,998.65
2024-01-14T10:41:52.958Z,998.57
2024-01-14T10:42:53.015Z,998.52
2024-01-14T10:43:52.943Z,998.51
2024-01-14T10:44:52.922Z,998.49
2024-01-14T10:45:52.981Z,998.47
2024-01-14T10:46:52.880Z,998.51
2024-01-14T10:47:52.876Z,998.53
2024-01-14T10:48:52.936Z,998.51
2024-01-14T10:49:52.860Z,998.54
2024-01-14T10:50:52.860Z,998.46
2024-01-14T10:51:52.816Z,998.48
2024-01-14T10:52:52.820Z,998.48
2024-01-14T10:53:52.791Z,998.46
2024-01-14T10:54:52.789Z,998.38
2024-01-14T10:55:52.777Z,998.38
2024-01-14T10:56:52.753Z,998.35
2024-01-14T10:57:52.746Z,998.33
2024-01-14T10:58:52.720Z,998.36
2024-01-14T10:59:52.738Z,998.37
2024-01-14T11:00:52.925Z,998.32
2024-01-14T11:01:52.695Z,998.25
2024-01-14T11:02:52.751Z,998.24
2024-01-14T11:03:55.405Z,998.33
2024-01-14T11:04:52.817Z,998.24
2024-01-14T11:05:52.643Z,998.27
2024-01-14T11:06:52.641Z,998.29
2024-01-14T11:07:52.642Z,998.17
2024-01-14T11:08:52.686Z,998.17
2024-01-14T11:09:52.631Z,998.21
2024-01-14T11:10:52.606Z,998.21
2024-01-14T11:11:52.580Z,998.23
2024-01-14T11:12:52.588Z,998.17
2024-01-14T11:13:52.542Z,998.23
2024-01-14T11:14:52.572Z,998.27
2024-01-14T11:15:52.629Z,998.14
2024-01-14T11:16:52.500Z,998.22
2024-01-14T11:17:52.519Z,998.09
2024-01-14T11:18:52.538Z,998.09
2024-01-14T11:19:52.571Z,998.09
2024-01-14T11:21:04.212Z,998.07
2024-01-14T11:22:06.189Z,997.99
2024-01-14T11:22:55.846Z,998.01
2024-01-14T11:23:52.467Z,997.92
2024-01-14T11:24:52.428Z,997.96
2024-01-14T11:25:52.410Z,998.04
2024-01-14T11:26:52.544Z,997.95
2024-01-14T11:27:52.392Z,997.96
2024-01-14T11:28:52.375Z,997.96
2024-01-14T11:29:52.354Z,997.91
2024-01-14T11:30:52.518Z,997.94
2024-01-14T11:31:52.301Z,997.88
2024-01-14T11:32:52.367Z,997.93
2024-01-14T11:33:52.454Z,997.90
2024-01-14T11:34:52.424Z,997.84
2024-01-14T11:35:52.264Z,997.87
2024-01-14T11:36:52.238Z,997.78
2024-01-14T11:37:52.264Z,997.76
2024-01-14T11:38:52.239Z,997.71
2024-01-14T11:39:52.201Z,997.71
2024-01-14T11:40:52.213Z,997.66
2024-01-14T11:41:52.280Z,997.68
2024-01-14T11:42:52.409Z,997.63
2024-01-14T11:43:52.162Z,997.58
2024-01-14T11:44:52.131Z,997.60
2024-01-14T11:45:52.258Z,997.52
2024-01-14T11:46:54.297Z,997.52
2024-01-14T11:47:52.136Z,997.50
2024-01-14T11:48:52.119Z,997.50
2024-01-14T11:49:52.166Z,997.46
2024-01-14T11:50:52.278Z,997.46
2024-01-14T11:51:52.054Z,997.47
2024-01-14T11:52:52.032Z,997.39
2024-01-14T11:53:55.596Z,997.47
2024-01-14T11:54:52.003Z,997.29
2024-01-14T11:55:52.013Z,997.38
2024-01-14T11:56:52.033Z,997.30
2024-01-14T11:57:51.971Z,997.32
2024-01-14T11:58:51.956Z,997.27
2024-01-14T11:59:55.289Z,997.26
2024-01-14T12:00:52.072Z,997.22
2024-01-14T12:01:51.914Z,997.18
2024-01-14T12:02:51.903Z,997.22
2024-01-14T12:03:51.918Z,997.14
2024-01-14T12:04:57.699Z,997.14
2024-01-14T12:05:52.230Z,997.11
2024-01-14T12:06:51.913Z,997.11
2024-01-14T12:07:51.836Z,997.05
2024-01-14T12:08:51.824Z,997.09
2024-01-14T12:09:51.822Z,997.06
2024-01-14T12:10:51.815Z,997.08
2024-01-14T12:11:51.795Z,997.08
2024-01-14T12:12:51.853Z,997.04
2024-01-14T12:13:51.762Z,996.99
2024-01-14T12:14:51.769Z,997.04
2024-01-14T12:15:58.848Z,997.01
2024-01-14T12:16:51.723Z,996.94
2024-01-14T12:17:51.771Z,996.89